createdAt,value
2023-09-11T00:01:37.181Z,13.17
2023-09-11T00:04:09.677Z,16.03
2023-09-11T00:06:39.513Z,14.57
2023-09-11T00:09:21.173Z,15.90
2023-09-11T00:11:54.140Z,16.30
2023-09-11T00:14:39.035Z,16.73
2023-09-11T00:17:22.594Z,18.47
2023-09-11T00:19:53.257Z,14.00
2023-09-11T00:22:27.527Z,18.50
2023-09-11T00:25:10.867Z,15.60
2023-09-11T00:28:08.013Z,13.67
2023-09-11T00:30:42.662Z,16.50
2023-09-11T00:33:48.057Z,20.30
2023-09-11T00:36:23.639Z,13.73
2023-09-11T00:38:56.667Z,13.07
2023-09-11T00:41:37.490Z,16.40
2023-09-11T00:44:07.913Z,18.53
2023-09-11T00:49:33.552Z,17.63
2023-09-11T00:52:23.271Z,18.43
2023-09-11T00:55:18.973Z,18.00
2023-09-11T00:57:53.389Z,20.10
2023-09-11T01:00:27.641Z,18.47
2023-09-11T01:03:03.976Z,23.03
2023-09-11T01:05:52.480Z,19.53
2023-09-11T01:08:25.399Z,20.40
2023-09-11T01:11:12.984Z,19.20
2023-09-11T01:14:06.397Z,18.50
2023-09-11T01:16:51.085Z,21.43
2023-09-11T01:19:51.770Z,20.27
2023-09-11T01:23:00.527Z,28.20
2023-09-11T01:26:12.319Z,23.83
2023-09-11T01:38:14.285Z,15.20
2023-09-11T01:40:56.432Z,17.13
2023-09-11T01:43:56.300Z,19.40
2023-09-11T01:46:42.079Z,15.30
2023-09-11T01:49:19.218Z,17.93
2023-09-11T01:52:12.568Z,17.23
2023-09-11T01:54:50.581Z,19.63
2023-09-11T01:57:30.711Z,18.10
2023-09-11T02:00:19.523Z,16.03
2023-09-11T02:03:09.790Z,15.53
2023-09-11T02:05:41.589Z,16.13
2023-09-11T02:08:16.518Z,19.80
2023-09-11T02:10:46.574Z,15.90
2023-09-11T02:13:19.085Z,20.60
2023-09-11T02:16:11.614Z,15.80
2023-09-11T02:18:43.734Z,16.17
2023-09-11T02:21:30.035Z,13.27
2023-09-11T02:24:14.234Z,17.67
2023-09-11T02:26:51.821Z,15.73
2023-09-11T02:29:23.038Z,12.97
2023-09-11T02:32:08.432Z,13.43
2023-09-11T02:34:57.230Z,14.97
2023-09-11T02:37:59.378Z,15.20
2023-09-11T02:40:46.270Z,15.50
2023-09-11T02:43:19.125Z,16.17
2023-09-11T02:46:15.685Z,12.83
2023-09-11T02:49:12.330Z,18.40
2023-09-11T02:51:55.650Z,17.83
2023-09-11T02:54:42.463Z,15.57
2023-09-11T02:57:16.663Z,14.03
2023-09-11T02:59:58.092Z,18.20
2023-09-11T03:02:35.739Z,20.20
2023-09-11T03:05:12.750Z,14.33
2023-09-11T03:07:48.441Z,15.47
2023-09-11T03:10:25.983Z,13.60
2023-09-11T03:12:58.944Z,14.37
2023-09-11T03:15:50.262Z,15.00
2023-09-11T03:18:20.784Z,16.03
2023-09-11T03:21:01.694Z,17.00
2023-09-11T03:23:38.886Z,16.37
2023-09-11T03:26:23.084Z,14.43
2023-09-11T03:29:02.547Z,16.23
2023-09-11T03:31:46.968Z,15.47
2023-09-11T03:37:15.773Z,15.57
2023-09-11T03:40:13.013Z,15.77
2023-09-11T03:42:53.124Z,20.30
2023-09-11T03:45:33.866Z,14.43
2023-09-11T03:48:06.477Z,17.23
2023-09-11T03:50:57.933Z,17.67
2023-09-11T03:53:41.984Z,17.77
2023-09-11T03:56:25.710Z,18.90
2023-09-11T03:59:08.704Z,17.23
2023-09-11T04:01:54.821Z,15.00
2023-09-11T04:04:35.223Z,17.50
2023-09-11T04:07:21.726Z,17.47
2023-09-11T04:09:57.264Z,14.90
2023-09-11T04:12:28.978Z,19.60
2023-09-11T04:15:00.923Z,17.73
2023-09-11T04:17:41.523Z,17.17
2023-09-11T04:20:12.407Z,16.67
2023-09-11T04:22:45.434Z,16.10
2023-09-11T04:25:26.222Z,21.03
2023-09-11T04:28:06.167Z,20.20
2023-09-11T04:30:44.960Z,17.23
2023-09-11T04:33:16.196Z,16.97
2023-09-11T04:35:47.305Z,17.50
2023-09-11T04:38:24.564Z,21.20
2023-09-11T04:41:04.026Z,16.00
2023-09-11T04:43:38.598Z,15.80
2023-09-11T04:46:12.426Z,21.03
2023-09-11T04:49:21.468Z,18.50
2023-09-11T04:51:53.781Z,16.03
2023-09-11T04:54:46.388Z,20.70
2023-09-11T04:57:27.150Z,17.90
2023-09-11T05:00:04.895Z,26.40
2023-09-11T05:03:02.597Z,21.27
2023-09-11T05:06:26.437Z,29.60
2023-09-11T05:09:11.507Z,16.90
2023-09-11T05:12:31.365Z,18.97
2023-09-11T05:15:27.177Z,24.23
2023-09-11T05:18:14.402Z,20.00
2023-09-11T05:20:43.157Z,20.33
2023-09-11T05:23:17.278Z,22.43
2023-09-11T05:25:47.760Z,18.17
2023-09-11T05:28:19.463Z,23.03
2023-09-11T05:30:48.456Z,20.73
2023-09-11T05:33:18.649Z,21.70
2023-09-11T05:35:53.578Z,20.03
2023-09-11T05:39:06.770Z,17.92
2023-09-11T05:45:10.402Z,19.98
2023-09-11T05:47:43.517Z,15.48
2023-09-11T05:50:16.072Z,24.50
2023-09-11T05:53:13.028Z,15.15
2023-09-11T05:56:03.608Z,27.13
2023-09-11T05:58:45.700Z,17.98
2023-09-11T06:01:31.821Z,18.15
2023-09-11T06:08:44.476Z,14.07
2023-09-11T06:11:45.594Z,20.23
2023-09-11T06:14:57.412Z,17.10
2023-09-11T06:17:48.502Z,17.77
2023-09-11T06:20:47.797Z,17.95
2023-09-11T06:23:19.621Z,19.98
2023-09-11T06:25:51.152Z,17.33
2023-09-11T06:33:24.919Z,17.17
2023-09-11T06:37:03.567Z,15.25
2023-09-11T06:43:06.786Z,15.68
2023-09-11T06:45:35.795Z,14.27
2023-09-11T06:48:04.342Z,19.05
2023-09-11T06:50:32.521Z,19.05
2023-09-11T06:53:00.407Z,20.65
2023-09-11T06:55:28.290Z,13.48
2023-09-11T06:57:57.845Z,15.13
2023-09-11T07:00:27.243Z,16.10
2023-09-11T07:02:55.394Z,18.48
2023-09-11T07:05:23.772Z,15.18
2023-09-11T07:07:51.713Z,15.60
2023-09-11T07:10:30.074Z,16.40
2023-09-11T07:12:58.978Z,14.25
2023-09-11T07:15:28.545Z,18.73
2023-09-11T07:17:56.743Z,23.70
2023-09-11T07:20:28.543Z,13.60
2023-09-11T07:22:56.643Z,13.77
2023-09-11T07:25:25.203Z,23.67
2023-09-11T07:27:56.385Z,20.08
2023-09-11T07:30:25.018Z,16.20
2023-09-11T07:32:55.414Z,17.63
2023-09-11T07:35:23.839Z,20.38
2023-09-11T07:37:51.786Z,20.10
2023-09-11T07:40:21.060Z,15.40
2023-09-11T07:42:48.998Z,14.15
2023-09-11T07:45:17.075Z,14.50
2023-09-11T07:47:45.199Z,15.00
2023-09-11T07:50:14.573Z,17.40
2023-09-11T07:52:42.664Z,11.93
2023-09-11T07:55:10.763Z,13.85
2023-09-11T07:57:41.455Z,17.05
2023-09-11T08:00:10.507Z,21.10
2023-09-11T08:02:39.197Z,13.65
2023-09-11T08:05:07.622Z,10.68
2023-09-11T08:07:36.940Z,11.80
2023-09-11T08:10:05.372Z,15.02
2023-09-11T08:12:35.784Z,17.80
2023-09-11T08:15:04.375Z,14.65
2023-09-11T08:17:33.183Z,11.20
2023-09-11T08:20:01.229Z,10.82
2023-09-11T08:22:29.247Z,10.48
2023-09-11T08:24:58.696Z,14.60
2023-09-11T08:27:26.555Z,9.82
2023-09-11T08:29:56.801Z,10.80
2023-09-11T08:32:24.944Z,13.43
2023-09-11T08:34:52.954Z,11.35
2023-09-11T08:37:20.969Z,14.18
2023-09-11T08:39:48.921Z,9.13
2023-09-11T08:42:18.388Z,9.45
2023-09-11T08:44:46.609Z,13.02
2023-09-11T08:47:16.582Z,10.05
2023-09-11T08:49:46.395Z,10.30
2023-09-11T08:52:16.158Z,16.75
2023-09-11T08:54:47.990Z,14.38
2023-09-11T08:57:22.510Z,10.73
2023-09-11T08:59:54.979Z,13.48
2023-09-11T09:02:25.545Z,13.80
2023-09-11T09:04:53.938Z,9.98
2023-09-11T09:07:22.861Z,10.88
2023-09-11T09:09:50.939Z,12.25
2023-09-11T09:12:20.469Z,10.13
2023-09-11T09:14:50.167Z,9.68
2023-09-11T09:17:18.299Z,13.25
2023-09-11T09:19:46.261Z,9.05
2023-09-11T09:22:14.903Z,8.73
2023-09-11T09:24:51.011Z,9.18
2023-09-11T09:27:21.345Z,11.45
2023-09-11T09:29:50.678Z,8.80
2023-09-11T09:32:19.078Z,9.07
2023-09-11T09:34:52.315Z,19.30
2023-09-11T09:37:21.974Z,9.00
2023-09-11T09:39:51.475Z,9.52
2023-09-11T09:42:21.326Z,9.05
2023-09-11T09:44:53.915Z,8.68
2023-09-11T09:47:23.628Z,9.63
2023-09-11T09:49:53.764Z,9.25
2023-09-11T09:52:22.919Z,11.57
2023-09-11T09:54:52.613Z,9.55
2023-09-11T09:57:23.592Z,10.82
2023-09-11T09:59:54.179Z,11.18
2023-09-11T10:02:28.346Z,10.27
2023-09-11T10:04:58.855Z,12.27
2023-09-11T10:07:39.732Z,13.60
2023-09-11T10:10:25.108Z,10.07
2023-09-11T10:13:14.229Z,10.00
2023-09-11T10:15:44.094Z,16.17
2023-09-11T10:18:13.585Z,10.15
2023-09-11T10:20:42.215Z,11.40
2023-09-11T10:23:10.939Z,10.10
2023-09-11T10:25:41.292Z,11.27
2023-09-11T10:28:15.851Z,9.60
2023-09-11T10:30:58.118Z,11.98
2023-09-11T10:33:36.912Z,11.90
2023-09-11T10:36:10.226Z,10.63
2023-09-11T10:38:39.062Z,14.40
2023-09-11T10:41:09.120Z,9.95
2023-09-11T10:43:40.060Z,10.98
2023-09-11T10:46:19.765Z,13.38
2023-09-11T10:48:48.110Z,11.30
2023-09-11T10:51:17.654Z,10.57
2023-09-11T10:53:49.579Z,10.13
2023-09-11T10:56:18.091Z,9.57
2023-09-11T10:58:47.460Z,11.77
2023-09-11T11:01:16.229Z,10.80
2023-09-11T11:03:44.423Z,9.50
2023-09-11T11:06:18.817Z,10.52
2023-09-11T11:08:48.635Z,12.93
2023-09-11T11:11:22.551Z,10.88
2023-09-11T11:14:24.322Z,9.48
2023-09-11T11:17:02.558Z,15.63
2023-09-11T11:19:32.402Z,9.57
2023-09-11T11:22:02.181Z,11.10
2023-09-11T11:24:35.923Z,16.58
2023-09-11T11:27:05.496Z,9.05
2023-09-11T11:29:34.422Z,12.25
2023-09-11T11:32:08.386Z,13.07
2023-09-11T11:34:39.092Z,9.70
2023-09-11T11:37:07.473Z,10.90
2023-09-11T11:39:39.009Z,14.85
2023-09-11T11:42:08.656Z,10.98
2023-09-11T11:44:38.125Z,9.07
2023-09-11T11:47:08.479Z,9.60
2023-09-11T11:49:37.169Z,10.13
2023-09-11T11:52:06.814Z,10.65
2023-09-11T11:54:35.971Z,12.32
2023-09-11T11:57:05.872Z,11.70
2023-09-11T11:59:35.697Z,11.43
2023-09-11T12:02:04.532Z,12.55
2023-09-11T12:07:07.196Z,10.10
2023-09-11T12:09:35.153Z,8.80
2023-09-11T12:12:07.112Z,9.80
2023-09-11T12:14:37.404Z,9.77
2023-09-11T12:17:10.037Z,9.43
2023-09-11T12:19:39.369Z,8.57
2023-09-11T12:22:07.716Z,12.50
2023-09-11T12:24:35.650Z,8.90
2023-09-11T12:27:06.248Z,9.15
2023-09-11T12:29:34.967Z,9.23
2023-09-11T12:32:03.252Z,8.13
2023-09-11T12:34:45.531Z,7.85
2023-09-11T12:37:13.609Z,8.70
2023-09-11T12:39:41.945Z,9.23
2023-09-11T12:42:12.642Z,10.68
2023-09-11T12:44:40.768Z,10.20
2023-09-11T12:47:08.961Z,15.68
2023-09-11T12:49:37.343Z,12.15
2023-09-11T12:52:07.736Z,8.50
2023-09-11T12:54:36.838Z,11.63
2023-09-11T12:57:07.003Z,11.50
2023-09-11T12:59:35.367Z,8.70
2023-09-11T13:02:04.481Z,7.90
2023-09-11T13:04:34.159Z,7.40
2023-09-11T13:07:02.058Z,13.98
2023-09-11T13:09:35.003Z,11.13
2023-09-11T13:12:02.951Z,14.85
2023-09-11T13:14:30.924Z,12.45
2023-09-11T13:16:59.117Z,9.10
2023-09-11T13:19:27.151Z,7.55
2023-09-11T13:21:54.082Z,8.45
2023-09-11T13:24:22.085Z,7.72
2023-09-11T13:26:51.641Z,9.02
2023-09-11T13:29:19.566Z,13.70
2023-09-11T13:31:47.504Z,11.45
2023-09-11T13:34:15.556Z,6.75
2023-09-11T13:36:43.555Z,14.02
2023-09-11T13:39:13.047Z,7.65
2023-09-11T13:41:41.230Z,10.88
2023-09-11T13:44:11.691Z,7.05
2023-09-11T13:46:39.550Z,10.30
2023-09-11T13:49:08.514Z,12.25
2023-09-11T13:51:36.454Z,10.40
2023-09-11T13:54:04.618Z,12.65
2023-09-11T13:56:32.596Z,8.80
2023-09-11T13:59:00.474Z,10.57
2023-09-11T14:01:29.698Z,8.18
2023-09-11T14:03:57.796Z,8.20
2023-09-11T14:06:26.905Z,10.85
2023-09-11T14:08:54.859Z,10.20
2023-09-11T14:11:22.850Z,11.38
2023-09-11T14:13:50.731Z,10.35
2023-09-11T14:16:19.017Z,11.65
2023-09-11T14:18:48.365Z,10.45
2023-09-11T14:21:16.374Z,9.75
2023-09-11T14:23:44.440Z,7.80
2023-09-11T14:26:12.454Z,14.23
2023-09-11T14:28:40.711Z,9.40
2023-09-11T14:31:08.954Z,13.50
2023-09-11T14:33:36.910Z,10.05
2023-09-11T14:36:06.583Z,14.15
2023-09-11T14:38:34.503Z,8.02
2023-09-11T14:41:02.512Z,12.77
2023-09-11T14:43:30.468Z,9.63
2023-09-11T14:45:58.515Z,7.22
2023-09-11T14:48:26.672Z,16.77
2023-09-11T14:50:54.761Z,6.75
2023-09-11T14:53:38.567Z,11.63
2023-09-11T14:56:06.495Z,9.95
2023-09-11T14:58:34.397Z,7.65
2023-09-11T15:01:02.778Z,22.60
2023-09-11T15:03:30.850Z,15.13
2023-09-11T15:05:59.271Z,5.70
2023-09-11T15:08:28.613Z,7.97
2023-09-11T15:10:59.809Z,13.48
2023-09-11T15:13:28.577Z,10.15
2023-09-11T15:15:56.995Z,16.45
2023-09-11T15:18:25.984Z,8.65
2023-09-11T15:20:54.348Z,9.93
2023-09-11T15:23:22.654Z,14.43
2023-09-11T15:25:51.924Z,11.18
2023-09-11T15:28:19.864Z,10.40
2023-09-11T15:30:52.998Z,9.05
2023-09-11T15:33:21.494Z,13.75
2023-09-11T15:36:04.141Z,13.00
2023-09-11T15:38:33.245Z,11.45
2023-09-11T15:41:07.528Z,8.57
2023-09-11T15:43:37.851Z,10.23
2023-09-11T15:46:07.006Z,13.25
2023-09-11T15:48:37.976Z,14.68
2023-09-11T15:51:06.534Z,13.90
2023-09-11T15:53:35.828Z,10.63
2023-09-11T15:56:06.416Z,14.55
2023-09-11T15:58:34.498Z,10.35
2023-09-11T16:01:02.509Z,12.98
2023-09-11T16:03:30.515Z,9.13
2023-09-11T16:05:58.509Z,11.43
2023-09-11T16:08:26.457Z,11.73
2023-09-11T16:10:54.466Z,9.45
2023-09-11T16:13:24.258Z,8.10
2023-09-11T16:15:52.329Z,16.77
2023-09-11T16:18:20.338Z,8.43
2023-09-11T16:20:48.331Z,11.60
2023-09-11T16:23:16.328Z,8.25
2023-09-11T16:25:44.325Z,8.10
2023-09-11T16:28:12.942Z,11.80
2023-09-11T16:30:42.200Z,8.00
2023-09-11T16:33:10.213Z,12.98
2023-09-11T16:35:38.155Z,15.65
2023-09-11T16:38:06.065Z,11.55
2023-09-11T16:40:35.433Z,10.00
2023-09-11T16:43:03.548Z,16.58
2023-09-11T16:45:34.520Z,10.48
2023-09-11T16:48:04.435Z,11.65
2023-09-11T16:50:32.729Z,16.33
2023-09-11T16:53:00.798Z,10.73
2023-09-11T16:55:28.760Z,12.57
2023-09-11T16:57:56.664Z,7.28
2023-09-11T17:00:26.461Z,8.70
2023-09-11T17:02:54.611Z,11.90
2023-09-11T17:05:23.888Z,12.32
2023-09-11T17:07:51.803Z,9.63
2023-09-11T17:10:19.776Z,14.40
2023-09-11T17:12:50.122Z,8.50
2023-09-11T17:15:18.278Z,13.27
2023-09-11T17:17:46.618Z,16.60
2023-09-11T17:20:17.259Z,10.73
2023-09-11T17:22:46.816Z,7.45
2023-09-11T17:25:15.347Z,7.70
2023-09-11T17:27:43.468Z,13.32
2023-09-11T17:30:12.691Z,13.05
2023-09-11T17:32:40.842Z,11.38
2023-09-11T17:35:09.494Z,9.13
2023-09-11T17:37:37.534Z,10.57
2023-09-11T17:40:14.529Z,12.35
2023-09-11T17:42:42.430Z,10.98
2023-09-11T17:45:11.623Z,13.07
2023-09-11T17:47:41.153Z,9.13
2023-09-11T17:50:09.808Z,9.70
2023-09-11T17:52:37.792Z,9.45
2023-09-11T17:55:08.037Z,12.32
2023-09-11T17:57:35.992Z,14.65
2023-09-11T18:00:05.308Z,9.60
2023-09-11T18:02:33.388Z,14.23
2023-09-11T18:05:01.424Z,9.13
2023-09-11T18:07:31.610Z,14.18
2023-09-11T18:09:59.665Z,9.40
2023-09-11T18:12:31.029Z,14.18
2023-09-11T18:14:59.389Z,13.43
2023-09-11T18:17:28.349Z,12.77
2023-09-11T18:19:56.800Z,11.00
2023-09-11T18:22:24.732Z,14.32
2023-09-11T18:24:53.014Z,16.10
2023-09-11T18:27:20.953Z,13.77
2023-09-11T18:29:50.299Z,15.70
2023-09-11T18:32:19.232Z,20.63
2023-09-11T18:34:47.175Z,15.80
2023-09-11T18:37:15.628Z,19.63
2023-09-11T18:39:43.667Z,11.50
2023-09-11T18:42:12.158Z,15.30
2023-09-11T18:44:40.268Z,17.83
2023-09-11T18:47:09.603Z,16.00
2023-09-11T18:49:37.530Z,15.27
2023-09-11T18:52:06.204Z,19.50
2023-09-11T18:54:34.427Z,14.60
2023-09-11T18:57:02.791Z,21.65
2023-09-11T18:59:32.370Z,18.17
2023-09-11T19:02:03.419Z,16.25
2023-09-11T19:04:33.500Z,19.02
2023-09-11T19:07:02.047Z,14.88
2023-09-11T19:09:31.237Z,22.98
2023-09-11T19:11:59.260Z,13.55
2023-09-11T19:14:27.260Z,11.05
2023-09-11T19:16:55.162Z,17.95
2023-09-11T19:19:23.056Z,12.20
2023-09-11T19:21:52.366Z,12.77
2023-09-11T19:24:20.281Z,11.80
2023-09-11T19:26:48.272Z,12.45
2023-09-11T19:29:17.144Z,14.75
2023-09-11T19:31:45.228Z,14.75
2023-09-11T19:34:13.246Z,17.52
2023-09-11T19:36:41.399Z,16.27
2023-09-11T19:39:12.570Z,16.50
2023-09-11T19:41:40.786Z,14.30
2023-09-11T19:44:08.854Z,14.13
2023-09-11T19:46:37.068Z,17.35
2023-09-11T19:49:04.979Z,17.73
2023-09-11T19:51:32.909Z,14.90
2023-09-11T19:54:01.046Z,24.50
2023-09-11T19:56:30.598Z,18.85
2023-09-11T19:59:00.021Z,17.30
2023-09-11T20:01:30.768Z,23.08
2023-09-11T20:03:59.323Z,20.88
2023-09-11T20:06:27.655Z,14.98
2023-09-11T20:08:55.607Z,15.73
2023-09-11T20:11:23.622Z,16.92
2023-09-11T20:13:52.871Z,17.58
2023-09-11T20:16:20.930Z,16.40
2023-09-11T20:18:48.931Z,13.43
2023-09-11T20:21:16.886Z,14.00
2023-09-11T20:23:44.804Z,15.82
2023-09-11T20:26:12.650Z,16.75
2023-09-11T20:28:40.949Z,14.32
2023-09-11T20:31:16.508Z,19.73
2023-09-11T20:33:45.834Z,16.20
2023-09-11T20:36:14.008Z,14.07
2023-09-11T20:38:42.388Z,13.55
2023-09-11T20:41:10.450Z,15.35
2023-09-11T20:43:45.480Z,14.07
2023-09-11T20:46:16.534Z,20.00
2023-09-11T20:48:44.894Z,13.40
2023-09-11T20:51:16.295Z,13.40
2023-09-11T20:53:44.347Z,19.92
2023-09-11T20:56:12.247Z,14.40
2023-09-11T20:58:40.497Z,14.70
2023-09-11T21:01:10.940Z,17.50
2023-09-11T21:03:40.616Z,14.90
2023-09-11T21:06:10.235Z,14.27
2023-09-11T21:08:38.215Z,12.77
2023-09-11T21:11:06.097Z,15.18
2023-09-11T21:13:33.991Z,18.20
2023-09-11T21:16:02.002Z,20.47
2023-09-11T21:18:30.479Z,12.53
2023-09-11T21:20:59.819Z,15.73
2023-09-11T21:23:28.388Z,12.00
2023-09-11T21:25:57.297Z,17.92
2023-09-11T21:28:25.735Z,17.03
2023-09-11T21:30:54.529Z,16.13
2023-09-11T21:33:23.145Z,18.20
2023-09-11T21:35:51.264Z,19.27
2023-09-11T21:38:20.571Z,15.87
2023-09-11T21:40:48.469Z,14.70
2023-09-11T21:43:16.411Z,18.67
2023-09-11T21:45:44.893Z,15.90
2023-09-11T21:48:13.326Z,17.40
2023-09-11T21:50:41.355Z,14.80
2023-09-11T21:53:09.366Z,13.07
2023-09-11T21:55:38.584Z,19.63
2023-09-11T21:58:06.485Z,17.43
2023-09-11T22:00:34.478Z,24.77
2023-09-11T22:03:02.853Z,18.77
2023-09-11T22:05:32.130Z,18.10
2023-09-11T22:08:00.097Z,14.13
2023-09-11T22:10:27.982Z,20.00
2023-09-11T22:12:57.196Z,17.67
2023-09-11T22:15:25.130Z,19.60
2023-09-11T22:17:53.140Z,22.10
2023-09-11T22:20:21.168Z,22.40
2023-09-11T22:22:49.073Z,15.40
2023-09-11T22:25:17.026Z,21.50
2023-09-11T22:27:45.151Z,16.70
2023-09-11T22:30:15.265Z,17.90
2023-09-11T22:32:55.370Z,15.93
2023-09-11T22:35:24.098Z,16.97
2023-09-11T22:37:52.811Z,15.80
2023-09-11T22:40:20.945Z,13.27
2023-09-11T22:42:48.852Z,18.90
2023-09-11T22:45:18.295Z,20.33
2023-09-11T22:47:48.861Z,16.10
2023-09-11T22:50:17.024Z,19.87
2023-09-11T22:52:44.889Z,16.90
2023-09-11T22:55:12.759Z,17.30
2023-09-11T22:57:40.627Z,14.50
2023-09-11T23:00:09.572Z,23.20
2023-09-11T23:02:39.158Z,17.87
2023-09-11T23:05:07.498Z,19.67
2023-09-11T23:07:35.372Z,22.57
2023-09-11T23:10:03.636Z,20.90
2023-09-11T23:12:31.579Z,14.37
2023-09-11T23:14:59.562Z,16.70
2023-09-11T23:17:27.546Z,18.30
2023-09-11T23:19:56.842Z,17.77
2023-09-11T23:22:24.772Z,23.57
2023-09-11T23:24:52.940Z,20.50
2023-09-11T23:27:20.920Z,20.70
2023-09-11T23:29:48.910Z,25.43
2023-09-11T23:32:16.803Z,19.80
2023-09-11T23:34:44.694Z,16.67
2023-09-11T23:37:13.870Z,18.70
2023-09-11T23:39:41.775Z,16.07
2023-09-11T23:42:11.498Z,22.37
2023-09-11T23:44:39.405Z,16.90
2023-09-11T23:47:07.881Z,14.93
2023-09-11T23:49:35.801Z,18.30
2023-09-11T23:52:19.381Z,24.27
2023-09-11T23:54:52.974Z,18.57
2023-09-11T23:57:20.910Z,16.20
2023-09-11T23:59:48.804Z,27.23
